sensor_id;sensor_type;location;lat;lon;timestamp;P1;durP1;ratioP1;P2;durP2;ratioP2
65853;SDS011;52627;48.838;2.402;2023-08-08T00:00:24;3.90;;;1.40;;
65853;SDS011;52627;48.838;2.402;2023-08-08T00:02:51;4.90;;;1.80;;
65853;SDS011;52627;48.838;2.402;2023-08-08T00:05:19;3.90;;;1.60;;
65853;SDS011;52627;48.838;2.402;2023-08-08T00:07:46;4.30;;;1.50;;
65853;SDS011;52627;48.838;2.402;2023-08-08T00:10:14;6.00;;;1.70;;
65853;SDS011;52627;48.838;2.402;2023-08-08T00:12:41;6.90;;;1.60;;
65853;SDS011;52627;48.838;2.402;2023-08-08T00:15:09;5.00;;;1.30;;
65853;SDS011;52627;48.838;2.402;2023-08-08T00:17:36;5.00;;;1.70;;
65853;SDS011;52627;48.838;2.402;2023-08-08T00:20:05;4.90;;;1.50;;
65853;SDS011;52627;48.838;2.402;2023-08-08T00:22:34;4.30;;;1.60;;
65853;SDS011;52627;48.838;2.402;2023-08-08T00:25:02;5.30;;;1.90;;
65853;SDS011;52627;48.838;2.402;2023-08-08T00:27:29;5.40;;;1.80;;
65853;SDS011;52627;48.838;2.402;2023-08-08T00:29:57;4.20;;;1.60;;
65853;SDS011;52627;48.838;2.402;2023-08-08T00:32:24;4.80;;;2.00;;
65853;SDS011;52627;48.838;2.402;2023-08-08T00:34:52;7.40;;;1.70;;
65853;SDS011;52627;48.838;2.402;2023-08-08T00:37:22;4.00;;;1.40;;
65853;SDS011;52627;48.838;2.402;2023-08-08T00:39:49;4.80;;;1.50;;
65853;SDS011;52627;48.838;2.402;2023-08-08T00:42:16;7.70;;;1.90;;
65853;SDS011;52627;48.838;2.402;2023-08-08T00:44:44;4.70;;;1.70;;
65853;SDS011;52627;48.838;2.402;2023-08-08T00:47:12;6.00;;;2.00;;
65853;SDS011;52627;48.838;2.402;2023-08-08T00:49:39;4.70;;;1.80;;
65853;SDS011;52627;48.838;2.402;2023-08-08T00:52:07;5.50;;;2.00;;
65853;SDS011;52627;48.838;2.402;2023-08-08T00:54:34;6.20;;;1.80;;
65853;SDS011;52627;48.838;2.402;2023-08-08T00:57:02;5.10;;;2.10;;
65853;SDS011;52627;48.838;2.402;2023-08-08T00:59:31;10.10;;;1.70;;
65853;SDS011;52627;48.838;2.402;2023-08-08T01:01:59;4.20;;;1.70;;
65853;SDS011;52627;48.838;2.402;2023-08-08T01:04:27;5.00;;;1.80;;
65853;SDS011;52627;48.838;2.402;2023-08-08T01:07:06;4.60;;;1.70;;
65853;SDS011;52627;48.838;2.402;2023-08-08T01:09:49;5.90;;;2.10;;
65853;SDS011;52627;48.838;2.402;2023-08-08T01:12:23;6.00;;;2.00;;
65853;SDS011;52627;48.838;2.402;2023-08-08T01:14:53;5.80;;;1.90;;
65853;SDS011;52627;48.838;2.402;2023-08-08T01:17:22;7.00;;;1.70;;
65853;SDS011;52627;48.838;2.402;2023-08-08T01:19:52;4.90;;;1.70;;
65853;SDS011;52627;48.838;2.402;2023-08-08T01:22:25;5.20;;;1.70;;
65853;SDS011;52627;48.838;2.402;2023-08-08T01:24:57;5.40;;;2.00;;
65853;SDS011;52627;48.838;2.402;2023-08-08T01:27:26;5.70;;;2.00;;
65853;SDS011;52627;48.838;2.402;2023-08-08T01:29:54;5.90;;;1.90;;
65853;SDS011;52627;48.838;2.402;2023-08-08T01:32:21;3.70;;;1.80;;
65853;SDS011;52627;48.838;2.402;2023-08-08T01:34:49;4.50;;;1.90;;
65853;SDS011;52627;48.838;2.402;2023-08-08T01:37:24;6.70;;;1.90;;
65853;SDS011;52627;48.838;2.402;2023-08-08T01:39:58;5.90;;;1.90;;
65853;SDS011;52627;48.838;2.402;2023-08-08T01:42:27;7.50;;;2.40;;
65853;SDS011;52627;48.838;2.402;2023-08-08T01:44:56;4.80;;;1.70;;
65853;SDS011;52627;48.838;2.402;2023-08-08T01:47:24;6.10;;;1.90;;
65853;SDS011;52627;48.838;2.402;2023-08-08T01:49:52;5.40;;;1.90;;
65853;SDS011;52627;48.838;2.402;2023-08-08T01:52:19;4.20;;;1.80;;
65853;SDS011;52627;48.838;2.402;2023-08-08T01:54:46;4.50;;;2.00;;
65853;SDS011;52627;48.838;2.402;2023-08-08T01:57:14;6.50;;;2.30;;
65853;SDS011;52627;48.838;2.402;2023-08-08T01:59:41;6.40;;;2.00;;
65853;SDS011;52627;48.838;2.402;2023-08-08T02:02:09;5.80;;;2.20;;
65853;SDS011;52627;48.838;2.402;2023-08-08T02:04:36;6.20;;;2.60;;
65853;SDS011;52627;48.838;2.402;2023-08-08T02:07:04;3.80;;;1.70;;
65853;SDS011;52627;48.838;2.402;2023-08-08T02:09:31;4.30;;;1.90;;
65853;SDS011;52627;48.838;2.402;2023-08-08T02:11:59;5.00;;;2.10;;
65853;SDS011;52627;48.838;2.402;2023-08-08T02:14:27;7.10;;;2.00;;
65853;SDS011;52627;48.838;2.402;2023-08-08T02:16:54;5.40;;;1.70;;
65853;SDS011;52627;48.838;2.402;2023-08-08T02:19:21;3.30;;;1.50;;
65853;SDS011;52627;48.838;2.402;2023-08-08T02:21:49;4.70;;;1.70;;
65853;SDS011;52627;48.838;2.402;2023-08-08T02:24:16;5.50;;;1.70;;
65853;SDS011;52627;48.838;2.402;2023-08-08T02:26:44;6.40;;;1.90;;
65853;SDS011;52627;48.838;2.402;2023-08-08T02:29:11;5.30;;;1.80;;
65853;SDS011;52627;48.838;2.402;2023-08-08T02:31:39;5.20;;;1.90;;
65853;SDS011;52627;48.838;2.402;2023-08-08T02:34:06;6.40;;;1.80;;
65853;SDS011;52627;48.838;2.402;2023-08-08T02:36:34;4.10;;;1.80;;
65853;SDS011;52627;48.838;2.402;2023-08-08T02:39:01;4.60;;;1.50;;
65853;SDS011;52627;48.838;2.402;2023-08-08T02:41:30;5.20;;;1.90;;
65853;SDS011;52627;48.838;2.402;2023-08-08T02:43:57;4.20;;;1.40;;
65853;SDS011;52627;48.838;2.402;2023-08-08T02:46:25;7.50;;;1.90;;
65853;SDS011;52627;48.838;2.402;2023-08-08T02:48:53;6.70;;;1.80;;
65853;SDS011;52627;48.838;2.402;2023-08-08T02:51:20;4.20;;;1.70;;
65853;SDS011;52627;48.838;2.402;2023-08-08T02:53:47;5.50;;;1.90;;
65853;SDS011;52627;48.838;2.402;2023-08-08T02:56:15;6.00;;;1.90;;
65853;SDS011;52627;48.838;2.402;2023-08-08T02:58:42;4.20;;;1.80;;
65853;SDS011;52627;48.838;2.402;2023-08-08T03:01:10;7.70;;;1.90;;
65853;SDS011;52627;48.838;2.402;2023-08-08T03:03:40;7.30;;;1.90;;
65853;SDS011;52627;48.838;2.402;2023-08-08T03:06:08;6.20;;;1.80;;
65853;SDS011;52627;48.838;2.402;2023-08-08T03:08:35;6.50;;;1.70;;
65853;SDS011;52627;48.838;2.402;2023-08-08T03:11:03;6.70;;;1.50;;
65853;SDS011;52627;48.838;2.402;2023-08-08T03:13:30;6.50;;;2.00;;
65853;SDS011;52627;48.838;2.402;2023-08-08T03:15:58;6.40;;;1.80;;
65853;SDS011;52627;48.838;2.402;2023-08-08T03:18:25;6.60;;;1.60;;
65853;SDS011;52627;48.838;2.402;2023-08-08T03:20:55;6.60;;;1.90;;
65853;SDS011;52627;48.838;2.402;2023-08-08T03:23:23;9.00;;;2.60;;
65853;SDS011;52627;48.838;2.402;2023-08-08T03:25:51;5.80;;;1.70;;
65853;SDS011;52627;48.838;2.402;2023-08-08T03:28:18;5.10;;;1.80;;
65853;SDS011;52627;48.838;2.402;2023-08-08T03:30:46;4.80;;;2.10;;
65853;SDS011;52627;48.838;2.402;2023-08-08T03:33:13;6.70;;;1.80;;
65853;SDS011;52627;48.838;2.402;2023-08-08T03:35:40;7.40;;;1.90;;
65853;SDS011;52627;48.838;2.402;2023-08-08T03:38:09;4.20;;;1.70;;
65853;SDS011;52627;48.838;2.402;2023-08-08T03:40:36;5.10;;;2.00;;
65853;SDS011;52627;48.838;2.402;2023-08-08T03:43:04;4.70;;;1.70;;
65853;SDS011;52627;48.838;2.402;2023-08-08T03:45:32;5.30;;;1.70;;
65853;SDS011;52627;48.838;2.402;2023-08-08T03:48:00;4.10;;;1.80;;
65853;SDS011;52627;48.838;2.402;2023-08-08T03:50:27;5.50;;;1.80;;
65853;SDS011;52627;48.838;2.402;2023-08-08T03:52:55;6.30;;;2.30;;
65853;SDS011;52627;48.838;2.402;2023-08-08T03:55:22;5.80;;;1.80;;
65853;SDS011;52627;48.838;2.402;2023-08-08T03:57:50;5.60;;;1.60;;
65853;SDS011;52627;48.838;2.402;2023-08-08T04:00:17;4.40;;;2.10;;
65853;SDS011;52627;48.838;2.402;2023-08-08T04:02:44;6.60;;;1.80;;
65853;SDS011;52627;48.838;2.402;2023-08-08T04:05:12;4.90;;;1.70;;
65853;SDS011;52627;48.838;2.402;2023-08-08T04:07:39;6.40;;;2.20;;
65853;SDS011;52627;48.838;2.402;2023-08-08T04:10:08;6.70;;;1.90;;
65853;SDS011;52627;48.838;2.402;2023-08-08T04:12:35;5.40;;;1.80;;
65853;SDS011;52627;48.838;2.402;2023-08-08T04:15:03;6.30;;;1.80;;
65853;SDS011;52627;48.838;2.402;2023-08-08T04:17:30;5.30;;;1.90;;
65853;SDS011;52627;48.838;2.402;2023-08-08T04:19:58;5.30;;;1.80;;
65853;SDS011;52627;48.838;2.402;2023-08-08T04:22:26;4.40;;;1.60;;
65853;SDS011;52627;48.838;2.402;2023-08-08T04:24:53;5.70;;;1.80;;
65853;SDS011;52627;48.838;2.402;2023-08-08T04:27:21;5.90;;;1.90;;
65853;SDS011;52627;48.838;2.402;2023-08-08T04:29:48;4.70;;;2.00;;
65853;SDS011;52627;48.838;2.402;2023-08-08T04:32:15;6.80;;;1.90;;
65853;SDS011;52627;48.838;2.402;2023-08-08T04:34:43;6.60;;;1.70;;
65853;SDS011;52627;48.838;2.402;2023-08-08T04:37:10;8.40;;;2.10;;
65853;SDS011;52627;48.838;2.402;2023-08-08T04:39:38;5.70;;;1.90;;
65853;SDS011;52627;48.838;2.402;2023-08-08T04:42:05;7.30;;;2.30;;
65853;SDS011;52627;48.838;2.402;2023-08-08T04:44:33;4.80;;;1.90;;
65853;SDS011;52627;48.838;2.402;2023-08-08T04:47:00;5.80;;;1.90;;
65853;SDS011;52627;48.838;2.402;2023-08-08T04:49:28;5.60;;;1.70;;
65853;SDS011;52627;48.838;2.402;2023-08-08T04:51:56;6.20;;;2.10;;
65853;SDS011;52627;48.838;2.402;2023-08-08T04:54:24;5.20;;;1.90;;
65853;SDS011;52627;48.838;2.402;2023-08-08T04:56:51;5.00;;;1.80;;
65853;SDS011;52627;48.838;2.402;2023-08-08T04:59:19;5.10;;;1.90;;
65853;SDS011;52627;48.838;2.402;2023-08-08T05:01:46;6.50;;;2.40;;
65853;SDS011;52627;48.838;2.402;2023-08-08T05:04:14;5.40;;;2.00;;
65853;SDS011;52627;48.838;2.402;2023-08-08T05:06:41;7.70;;;2.40;;
65853;SDS011;52627;48.838;2.402;2023-08-08T05:09:09;7.40;;;2.00;;
65853;SDS011;52627;48.838;2.402;2023-08-08T05:11:36;7.20;;;1.70;;
65853;SDS011;52627;48.838;2.402;2023-08-08T05:14:04;4.50;;;1.70;;
65853;SDS011;52627;48.838;2.402;2023-08-08T05:16:31;8.40;;;2.40;;
65853;SDS011;52627;48.838;2.402;2023-08-08T05:18:59;7.70;;;2.20;;
65853;SDS011;52627;48.838;2.402;2023-08-08T05:21:26;6.40;;;1.70;;
65853;SDS011;52627;48.838;2.402;2023-08-08T05:23:54;5.00;;;2.10;;
65853;SDS011;52627;48.838;2.402;2023-08-08T05:26:21;8.30;;;2.00;;
65853;SDS011;52627;48.838;2.402;2023-08-08T05:28:49;7.50;;;2.10;;
65853;SDS011;52627;48.838;2.402;2023-08-08T05:31:16;6.30;;;2.30;;
65853;SDS011;52627;48.838;2.402;2023-08-08T05:33:44;8.00;;;2.30;;
65853;SDS011;52627;48.838;2.402;2023-08-08T05:36:11;5.80;;;2.00;;
65853;SDS011;52627;48.838;2.402;2023-08-08T05:38:39;7.30;;;2.10;;
65853;SDS011;52627;48.838;2.402;2023-08-08T05:41:08;9.30;;;2.50;;
65853;SDS011;52627;48.838;2.402;2023-08-08T05:43:35;7.40;;;2.30;;
65853;SDS011;52627;48.838;2.402;2023-08-08T05:46:04;9.00;;;2.80;;
65853;SDS011;52627;48.838;2.402;2023-08-08T05:48:31;8.50;;;2.50;;
65853;SDS011;52627;48.838;2.402;2023-08-08T05:50:58;6.20;;;2.50;;
65853;SDS011;52627;48.838;2.402;2023-08-08T05:53:27;7.20;;;2.60;;
65853;SDS011;52627;48.838;2.402;2023-08-08T05:55:55;7.60;;;2.40;;
65853;SDS011;52627;48.838;2.402;2023-08-08T05:58:22;6.20;;;2.50;;
65853;SDS011;52627;48.838;2.402;2023-08-08T06:00:50;7.30;;;2.40;;
65853;SDS011;52627;48.838;2.402;2023-08-08T06:03:17;6.30;;;2.70;;
65853;SDS011;52627;48.838;2.402;2023-08-08T06:05:45;5.50;;;2.90;;
65853;SDS011;52627;48.838;2.402;2023-08-08T06:08:13;7.70;;;2.30;;
65853;SDS011;52627;48.838;2.402;2023-08-08T06:10:42;7.40;;;2.60;;
65853;SDS011;52627;48.838;2.402;2023-08-08T06:13:10;8.90;;;2.30;;
65853;SDS011;52627;48.838;2.402;2023-08-08T06:15:37;6.70;;;2.10;;
65853;SDS011;52627;48.838;2.402;2023-08-08T06:18:05;8.60;;;2.50;;
65853;SDS011;52627;48.838;2.402;2023-08-08T06:20:32;7.00;;;2.30;;
65853;SDS011;52627;48.838;2.402;2023-08-08T06:23:00;6.30;;;2.50;;
65853;SDS011;52627;48.838;2.402;2023-08-08T06:25:27;5.90;;;2.30;;
65853;SDS011;52627;48.838;2.402;2023-08-08T06:27:55;6.80;;;1.90;;
65853;SDS011;52627;48.838;2.402;2023-08-08T06:30:23;5.20;;;2.00;;
65853;SDS011;52627;48.838;2.402;2023-08-08T06:32:50;4.50;;;1.90;;
65853;SDS011;52627;48.838;2.402;2023-08-08T06:35:18;7.40;;;2.10;;
65853;SDS011;52627;48.838;2.402;2023-08-08T06:37:46;6.70;;;2.00;;
65853;SDS011;52627;48.838;2.402;2023-08-08T06:40:13;6.60;;;2.50;;
65853;SDS011;52627;48.838;2.402;2023-08-08T06:42:40;5.20;;;2.20;;
65853;SDS011;52627;48.838;2.402;2023-08-08T06:45:08;6.60;;;2.10;;
65853;SDS011;52627;48.838;2.402;2023-08-08T06:47:37;9.90;;;2.30;;
65853;SDS011;52627;48.838;2.402;2023-08-08T06:50:05;6.60;;;1.90;;
65853;SDS011;52627;48.838;2.402;2023-08-08T06:52:34;6.00;;;1.60;;
65853;SDS011;52627;48.838;2.402;2023-08-08T06:55:01;6.00;;;1.90;;
65853;SDS011;52627;48.838;2.402;2023-08-08T06:57:33;11.80;;;2.00;;
65853;SDS011;52627;48.838;2.402;2023-08-08T07:00:03;8.50;;;2.00;;
65853;SDS011;52627;48.838;2.402;2023-08-08T07:02:35;5.20;;;1.50;;
65853;SDS011;52627;48.838;2.402;2023-08-08T07:05:03;5.70;;;1.90;;
65853;SDS011;52627;48.838;2.402;2023-08-08T07:07:31;8.40;;;1.60;;
65853;SDS011;52627;48.838;2.402;2023-08-08T07:10:00;4.40;;;1.40;;
65853;SDS011;52627;48.838;2.402;2023-08-08T07:12:28;4.60;;;1.30;;
65853;SDS011;52627;48.838;2.402;2023-08-08T07:14:56;4.10;;;1.50;;
65853;SDS011;52627;48.838;2.402;2023-08-08T07:17:24;5.20;;;1.40;;
65853;SDS011;52627;48.838;2.402;2023-08-08T07:19:51;4.00;;;1.40;;
65853;SDS011;52627;48.838;2.402;2023-08-08T07:22:18;3.50;;;1.20;;
65853;SDS011;52627;48.838;2.402;2023-08-08T07:24:46;5.70;;;1.30;;
65853;SDS011;52627;48.838;2.402;2023-08-08T07:27:13;5.30;;;1.30;;
65853;SDS011;52627;48.838;2.402;2023-08-08T07:29:41;4.90;;;1.20;;
65853;SDS011;52627;48.838;2.402;2023-08-08T07:32:08;10.20;;;1.50;;
65853;SDS011;52627;48.838;2.402;2023-08-08T07:34:36;6.40;;;1.40;;
65853;SDS011;52627;48.838;2.402;2023-08-08T07:37:03;5.20;;;1.30;;
65853;SDS011;52627;48.838;2.402;2023-08-08T07:39:31;3.40;;;1.20;;
65853;SDS011;52627;48.838;2.402;2023-08-08T07:41:58;5.00;;;1.20;;
65853;SDS011;52627;48.838;2.402;2023-08-08T07:44:26;4.50;;;1.20;;
65853;SDS011;52627;48.838;2.402;2023-08-08T07:46:54;4.40;;;1.40;;
65853;SDS011;52627;48.838;2.402;2023-08-08T07:49:21;4.70;;;1.30;;
65853;SDS011;52627;48.838;2.402;2023-08-08T07:51:49;5.20;;;1.30;;
65853;SDS011;52627;48.838;2.402;2023-08-08T07:54:16;4.50;;;1.30;;
65853;SDS011;52627;48.838;2.402;2023-08-08T07:56:44;4.20;;;1.50;;
65853;SDS011;52627;48.838;2.402;2023-08-08T07:59:11;3.90;;;1.20;;
65853;SDS011;52627;48.838;2.402;2023-08-08T08:01:39;4.70;;;1.60;;
65853;SDS011;52627;48.838;2.402;2023-08-08T08:04:07;5.10;;;1.20;;
65853;SDS011;52627;48.838;2.402;2023-08-08T08:06:34;5.90;;;1.30;;
65853;SDS011;52627;48.838;2.402;2023-08-08T08:09:02;8.10;;;1.40;;
65853;SDS011;52627;48.838;2.402;2023-08-08T08:11:30;4.20;;;1.30;;
65853;SDS011;52627;48.838;2.402;2023-08-08T08:13:58;5.00;;;1.30;;
65853;SDS011;52627;48.838;2.402;2023-08-08T08:16:25;3.40;;;1.20;;
65853;SDS011;52627;48.838;2.402;2023-08-08T08:18:53;5.00;;;1.40;;
65853;SDS011;52627;48.838;2.402;2023-08-08T08:21:20;4.20;;;1.20;;
65853;SDS011;52627;48.838;2.402;2023-08-08T08:23:47;4.30;;;1.30;;
65853;SDS011;52627;48.838;2.402;2023-08-08T08:26:15;4.80;;;1.30;;
65853;SDS011;52627;48.838;2.402;2023-08-08T08:28:42;5.40;;;1.20;;
65853;SDS011;52627;48.838;2.402;2023-08-08T08:31:10;5.50;;;1.70;;
65853;SDS011;52627;48.838;2.402;2023-08-08T08:33:37;5.30;;;1.30;;
65853;SDS011;52627;48.838;2.402;2023-08-08T08:36:05;7.30;;;1.60;;
65853;SDS011;52627;48.838;2.402;2023-08-08T08:38:33;3.00;;;1.10;;
65853;SDS011;52627;48.838;2.402;2023-08-08T08:41:02;4.70;;;1.40;;
65853;SDS011;52627;48.838;2.402;2023-08-08T08:43:31;4.80;;;1.20;;
65853;SDS011;52627;48.838;2.402;2023-08-08T08:46:00;4.40;;;1.10;;
65853;SDS011;52627;48.838;2.402;2023-08-08T08:48:30;3.30;;;1.20;;
65853;SDS011;52627;48.838;2.402;2023-08-08T08:50:58;3.90;;;1.20;;
65853;SDS011;52627;48.838;2.402;2023-08-08T08:53:26;4.30;;;1.10;;
65853;SDS011;52627;48.838;2.402;2023-08-08T08:55:54;4.00;;;1.10;;
65853;SDS011;52627;48.838;2.402;2023-08-08T08:58:24;3.50;;;1.10;;
65853;SDS011;52627;48.838;2.402;2023-08-08T09:00:53;4.90;;;1.50;;
65853;SDS011;52627;48.838;2.402;2023-08-08T09:03:21;5.80;;;1.40;;
65853;SDS011;52627;48.838;2.402;2023-08-08T09:05:49;4.00;;;1.20;;
65853;SDS011;52627;48.838;2.402;2023-08-08T09:08:17;5.10;;;1.40;;
65853;SDS011;52627;48.838;2.402;2023-08-08T09:10:45;5.30;;;1.70;;
65853;SDS011;52627;48.838;2.402;2023-08-08T09:13:14;5.60;;;1.20;;
65853;SDS011;52627;48.838;2.402;2023-08-08T09:15:41;4.30;;;1.20;;
65853;SDS011;52627;48.838;2.402;2023-08-08T09:18:09;3.40;;;1.30;;
65853;SDS011;52627;48.838;2.402;2023-08-08T09:20:36;4.40;;;1.20;;
65853;SDS011;52627;48.838;2.402;2023-08-08T09:23:04;5.80;;;1.40;;
65853;SDS011;52627;48.838;2.402;2023-08-08T09:25:31;4.30;;;1.60;;
65853;SDS011;52627;48.838;2.402;2023-08-08T09:27:59;4.90;;;1.50;;
65853;SDS011;52627;48.838;2.402;2023-08-08T09:30:26;3.90;;;1.30;;
65853;SDS011;52627;48.838;2.402;2023-08-08T09:32:58;3.80;;;1.10;;
65853;SDS011;52627;48.838;2.402;2023-08-08T09:35:28;3.70;;;1.40;;
65853;SDS011;52627;48.838;2.402;2023-08-08T09:37:56;5.30;;;1.50;;
65853;SDS011;52627;48.838;2.402;2023-08-08T09:40:24;4.80;;;1.20;;
65853;SDS011;52627;48.838;2.402;2023-08-08T09:42:52;3.20;;;1.10;;
65853;SDS011;52627;48.838;2.402;2023-08-08T09:45:22;4.40;;;1.10;;
65853;SDS011;52627;48.838;2.402;2023-08-08T09:47:51;5.30;;;1.30;;
65853;SDS011;52627;48.838;2.402;2023-08-08T09:50:19;4.80;;;1.20;;
65853;SDS011;52627;48.838;2.402;2023-08-08T09:52:47;4.50;;;1.10;;
65853;SDS011;52627;48.838;2.402;2023-08-08T09:55:15;3.80;;;1.20;;
65853;SDS011;52627;48.838;2.402;2023-08-08T09:57:43;4.00;;;1.10;;
65853;SDS011;52627;48.838;2.402;2023-08-08T10:00:11;6.00;;;1.30;;
65853;SDS011;52627;48.838;2.402;2023-08-08T10:02:44;5.30;;;1.30;;
65853;SDS011;52627;48.838;2.402;2023-08-08T10:05:14;5.20;;;1.20;;
65853;SDS011;52627;48.838;2.402;2023-08-08T10:07:43;4.90;;;1.30;;
65853;SDS011;52627;48.838;2.402;2023-08-08T10:10:11;5.10;;;1.20;;
65853;SDS011;52627;48.838;2.402;2023-08-08T10:12:42;3.40;;;1.20;;
65853;SDS011;52627;48.838;2.402;2023-08-08T10:15:10;5.50;;;1.50;;
65853;SDS011;52627;48.838;2.402;2023-08-08T10:17:39;2.90;;;1.30;;
65853;SDS011;52627;48.838;2.402;2023-08-08T10:20:10;6.10;;;1.30;;
65853;SDS011;52627;48.838;2.402;2023-08-08T10:22:43;6.00;;;1.30;;
65853;SDS011;52627;48.838;2.402;2023-08-08T10:25:18;3.50;;;1.30;;
65853;SDS011;52627;48.838;2.402;2023-08-08T10:27:46;4.20;;;1.20;;
65853;SDS011;52627;48.838;2.402;2023-08-08T10:30:14;3.40;;;1.20;;
65853;SDS011;52627;48.838;2.402;2023-08-08T10:32:44;3.20;;;1.20;;
65853;SDS011;52627;48.838;2.402;2023-08-08T10:35:16;3.80;;;1.40;;
65853;SDS011;52627;48.838;2.402;2023-08-08T10:37:53;4.20;;;1.40;;
65853;SDS011;52627;48.838;2.402;2023-08-08T10:40:23;3.50;;;1.40;;
65853;SDS011;52627;48.838;2.402;2023-08-08T10:42:51;3.70;;;1.30;;
65853;SDS011;52627;48.838;2.402;2023-08-08T10:45:19;3.20;;;1.20;;
65853;SDS011;52627;48.838;2.402;2023-08-08T10:47:47;4.20;;;1.40;;
65853;SDS011;52627;48.838;2.402;2023-08-08T10:50:15;4.70;;;1.30;;
65853;SDS011;52627;48.838;2.402;2023-08-08T10:55:27;4.20;;;1.40;;
65853;SDS011;52627;48.838;2.402;2023-08-08T10:58:05;4.20;;;1.40;;
65853;SDS011;52627;48.838;2.402;2023-08-08T11:00:36;5.20;;;1.40;;
65853;SDS011;52627;48.838;2.402;2023-08-08T11:03:07;5.10;;;1.40;;
65853;SDS011;52627;48.838;2.402;2023-08-08T11:05:37;4.40;;;1.60;;
65853;SDS011;52627;48.838;2.402;2023-08-08T11:08:06;4.40;;;1.50;;
65853;SDS011;52627;48.838;2.402;2023-08-08T11:10:36;3.90;;;1.30;;
65853;SDS011;52627;48.838;2.402;2023-08-08T11:13:06;3.60;;;1.70;;
65853;SDS011;52627;48.838;2.402;2023-08-08T11:15:36;3.20;;;1.20;;
65853;SDS011;52627;48.838;2.402;2023-08-08T11:18:06;3.50;;;1.40;;
65853;SDS011;52627;48.838;2.402;2023-08-08T11:20:35;4.00;;;1.40;;
65853;SDS011;52627;48.838;2.402;2023-08-08T11:23:03;5.40;;;2.00;;
65853;SDS011;52627;48.838;2.402;2023-08-08T11:25:41;5.70;;;1.60;;
65853;SDS011;52627;48.838;2.402;2023-08-08T11:28:11;4.80;;;1.40;;
65853;SDS011;52627;48.838;2.402;2023-08-08T11:30:44;5.80;;;1.30;;
65853;SDS011;52627;48.838;2.402;2023-08-08T11:33:14;4.40;;;1.40;;
65853;SDS011;52627;48.838;2.402;2023-08-08T11:35:44;4.70;;;1.50;;
65853;SDS011;52627;48.838;2.402;2023-08-08T11:38:17;3.90;;;1.50;;
65853;SDS011;52627;48.838;2.402;2023-08-08T11:40:45;4.50;;;1.30;;
65853;SDS011;52627;48.838;2.402;2023-08-08T11:43:13;3.60;;;1.50;;
65853;SDS011;52627;48.838;2.402;2023-08-08T11:45:42;4.80;;;1.50;;
65853;SDS011;52627;48.838;2.402;2023-08-08T11:48:10;5.20;;;1.80;;
65853;SDS011;52627;48.838;2.402;2023-08-08T11:50:37;4.70;;;1.40;;
65853;SDS011;52627;48.838;2.402;2023-08-08T11:53:07;5.10;;;1.40;;
65853;SDS011;52627;48.838;2.402;2023-08-08T11:55:36;4.00;;;1.60;;
65853;SDS011;52627;48.838;2.402;2023-08-08T11:58:03;4.20;;;1.50;;
65853;SDS011;52627;48.838;2.402;2023-08-08T12:00:32;3.50;;;1.40;;
65853;SDS011;52627;48.838;2.402;2023-08-08T12:03:01;3.40;;;1.40;;
65853;SDS011;52627;48.838;2.402;2023-08-08T12:05:36;3.50;;;1.30;;
65853;SDS011;52627;48.838;2.402;2023-08-08T12:08:07;3.80;;;1.40;;
65853;SDS011;52627;48.838;2.402;2023-08-08T12:10:36;4.00;;;1.40;;
65853;SDS011;52627;48.838;2.402;2023-08-08T12:13:03;5.50;;;1.50;;
65853;SDS011;52627;48.838;2.402;2023-08-08T12:15:33;4.10;;;1.40;;
65853;SDS011;52627;48.838;2.402;2023-08-08T12:18:05;3.60;;;1.30;;
65853;SDS011;52627;48.838;2.402;2023-08-08T12:20:33;4.10;;;1.50;;
65853;SDS011;52627;48.838;2.402;2023-08-08T12:23:00;4.20;;;1.50;;
65853;SDS011;52627;48.838;2.402;2023-08-08T12:25:28;7.00;;;1.60;;
65853;SDS011;52627;48.838;2.402;2023-08-08T12:27:55;3.90;;;1.40;;
65853;SDS011;52627;48.838;2.402;2023-08-08T12:30:23;4.20;;;1.30;;
65853;SDS011;52627;48.838;2.402;2023-08-08T12:32:50;5.10;;;1.70;;
65853;SDS011;52627;48.838;2.402;2023-08-08T12:35:18;5.10;;;1.70;;
65853;SDS011;52627;48.838;2.402;2023-08-08T12:37:46;4.40;;;1.30;;
65853;SDS011;52627;48.838;2.402;2023-08-08T12:40:14;5.70;;;1.30;;
65853;SDS011;52627;48.838;2.402;2023-08-08T12:42:42;6.10;;;1.50;;
65853;SDS011;52627;48.838;2.402;2023-08-08T12:45:09;5.70;;;1.60;;
65853;SDS011;52627;48.838;2.402;2023-08-08T12:47:37;3.80;;;1.10;;
65853;SDS011;52627;48.838;2.402;2023-08-08T12:50:06;4.90;;;2.10;;
65853;SDS011;52627;48.838;2.402;2023-08-08T12:52:35;3.40;;;1.20;;
65853;SDS011;52627;48.838;2.402;2023-08-08T12:55:04;4.90;;;1.30;;
65853;SDS011;52627;48.838;2.402;2023-08-08T12:57:32;4.70;;;1.30;;
65853;SDS011;52627;48.838;2.402;2023-08-08T12:59:59;3.20;;;1.40;;
65853;SDS011;52627;48.838;2.402;2023-08-08T13:02:27;4.70;;;1.40;;
65853;SDS011;52627;48.838;2.402;2023-08-08T13:04:55;5.30;;;1.40;;
65853;SDS011;52627;48.838;2.402;2023-08-08T13:07:22;3.60;;;1.20;;
65853;SDS011;52627;48.838;2.402;2023-08-08T13:09:50;3.00;;;1.30;;
65853;SDS011;52627;48.838;2.402;2023-08-08T13:12:17;4.70;;;1.10;;
65853;SDS011;52627;48.838;2.402;2023-08-08T13:14:45;3.10;;;1.30;;
65853;SDS011;52627;48.838;2.402;2023-08-08T13:17:12;4.30;;;1.40;;
65853;SDS011;52627;48.838;2.402;2023-08-08T13:19:40;4.40;;;1.50;;
65853;SDS011;52627;48.838;2.402;2023-08-08T13:22:08;2.70;;;1.10;;
65853;SDS011;52627;48.838;2.402;2023-08-08T13:24:35;2.90;;;1.20;;
65853;SDS011;52627;48.838;2.402;2023-08-08T13:27:03;5.10;;;1.40;;
65853;SDS011;52627;48.838;2.402;2023-08-08T13:29:30;6.20;;;1.50;;
65853;SDS011;52627;48.838;2.402;2023-08-08T13:31:58;2.50;;;1.10;;
65853;SDS011;52627;48.838;2.402;2023-08-08T13:34:26;5.00;;;1.40;;
65853;SDS011;52627;48.838;2.402;2023-08-08T13:36:53;3.80;;;1.30;;
65853;SDS011;52627;48.838;2.402;2023-08-08T13:39:21;4.60;;;1.30;;
65853;SDS011;52627;48.838;2.402;2023-08-08T13:41:49;3.70;;;1.30;;
65853;SDS011;52627;48.838;2.402;2023-08-08T13:44:17;3.20;;;1.20;;
65853;SDS011;52627;48.838;2.402;2023-08-08T13:46:45;4.60;;;1.10;;
65853;SDS011;52627;48.838;2.402;2023-08-08T13:49:13;4.70;;;1.40;;
65853;SDS011;52627;48.838;2.402;2023-08-08T13:51:40;4.40;;;1.40;;
65853;SDS011;52627;48.838;2.402;2023-08-08T13:54:10;3.40;;;1.20;;
65853;SDS011;52627;48.838;2.402;2023-08-08T13:56:38;4.00;;;1.20;;
65853;SDS011;52627;48.838;2.402;2023-08-08T13:59:06;4.00;;;1.20;;
65853;SDS011;52627;48.838;2.402;2023-08-08T14:01:33;4.80;;;1.30;;
65853;SDS011;52627;48.838;2.402;2023-08-08T14:04:02;3.40;;;1.40;;
65853;SDS011;52627;48.838;2.402;2023-08-08T14:06:30;5.40;;;1.40;;
65853;SDS011;52627;48.838;2.402;2023-08-08T14:08:57;3.50;;;1.20;;
65853;SDS011;52627;48.838;2.402;2023-08-08T14:11:25;4.00;;;1.30;;
65853;SDS011;52627;48.838;2.402;2023-08-08T14:13:52;4.40;;;1.40;;
65853;SDS011;52627;48.838;2.402;2023-08-08T14:16:20;3.70;;;1.50;;
65853;SDS011;52627;48.838;2.402;2023-08-08T14:18:47;3.20;;;1.10;;
65853;SDS011;52627;48.838;2.402;2023-08-08T14:21:15;3.30;;;1.10;;
65853;SDS011;52627;48.838;2.402;2023-08-08T14:23:42;2.60;;;1.20;;
65853;SDS011;52627;48.838;2.402;2023-08-08T14:26:11;3.30;;;1.10;;
65853;SDS011;52627;48.838;2.402;2023-08-08T14:28:39;5.90;;;1.70;;
65853;SDS011;52627;48.838;2.402;2023-08-08T14:31:06;2.90;;;1.30;;
65853;SDS011;52627;48.838;2.402;2023-08-08T14:33:34;4.90;;;1.80;;
65853;SDS011;52627;48.838;2.402;2023-08-08T14:36:02;3.70;;;1.40;;
65853;SDS011;52627;48.838;2.402;2023-08-08T14:38:34;4.30;;;1.30;;
65853;SDS011;52627;48.838;2.402;2023-08-08T14:41:03;2.90;;;1.30;;
65853;SDS011;52627;48.838;2.402;2023-08-08T14:43:31;4.20;;;1.40;;
65853;SDS011;52627;48.838;2.402;2023-08-08T14:45:58;3.70;;;1.40;;
65853;SDS011;52627;48.838;2.402;2023-08-08T14:48:26;4.20;;;1.40;;
65853;SDS011;52627;48.838;2.402;2023-08-08T14:50:54;4.00;;;1.80;;
65853;SDS011;52627;48.838;2.402;2023-08-08T14:53:22;4.10;;;1.30;;
65853;SDS011;52627;48.838;2.402;2023-08-08T14:55:50;4.50;;;1.40;;